Time;durP1;ratioP1;P1;durP2;ratioP2;P2;SDS_P1;SDS_P2;PMS_P1;PMS_P2;Temp;Humidity;BMP_temperature;BMP_pressure;BME280_temperature;BME280_humidity;BME280_pressure;Samples;Min_cycle;Max_cycle;Signal;HPM_P1;HPM_P2
2023/06/03 00:02:23;;;;;;;3.70;2.10;;;;;;;;;;4922724;29;20024;-81
2023/06/03 00:05:31;;;;;;;4.53;2.13;;;;;;;;;;4935500;29;20076;-82
2023/06/03 00:08:24;;;;;;;3.53;2.72;;;12.90;98.80;;;;;;4925196;29;20028;-82
2023/06/03 00:11:37;;;;;;;4.05;2.38;;;12.70;99.90;;;;;;4923352;29;20037;-81
2023/06/03 00:14:16;;;;;;;4.13;2.65;;;;;;;;;;4925879;29;20036;-82
2023/06/03 00:17:11;;;;;;;9.70;3.00;;;;;;;;;;4940748;29;20104;-82
2023/06/03 00:21:01;;;;;;;5.63;2.75;;;12.40;99.90;;;;;;4925969;29;20028;-82
2023/06/03 00:24:22;;;;;;;5.75;2.20;;;12.30;99.90;;;;;;4962447;28;20023;-80
2023/06/03 00:26:58;;;;;;;3.00;2.30;;;;;;;;;;4917207;28;20059;-82
2023/06/03 00:29:43;;;;;;;3.30;2.20;;;;;;;;;;4962520;28;20039;-83
2023/06/03 00:32:46;;;;;;;10.35;2.50;;;;;;;;;;4962745;28;20117;-83
2023/06/03 00:39:19;;;;;;;3.58;2.20;;;12.10;99.90;;;;;;4959356;28;20129;-81
2023/06/03 00:41:46;;;;;;;5.78;2.72;;;;;;;;;;4961830;28;20083;-83
2023/06/03 00:44:15;;;;;;;3.95;2.10;;;;;;;;;;4946443;28;20032;-82
2023/06/03 00:47:20;;;;;;;5.10;2.65;;;;;;;;;;4905796;29;20013;-83
2023/06/03 00:49:49;;;;;;;6.50;2.92;;;;;;;;;;4946090;28;20022;-82
2023/06/03 00:55:10;;;;;;;3.53;2.10;;;;;;;;;;4962501;28;20030;-82
2023/06/03 00:57:37;;;;;;;2.30;2.08;;;;;;;;;;4946358;28;20012;-82
2023/06/03 01:00:27;;;;;;;4.72;2.17;;;11.80;99.90;;;;;;4946055;28;20016;-82
2023/06/03 01:06:56;;;;;;;5.80;2.95;;;11.50;99.90;;;;;;4961976;28;20027;-82
2023/06/03 01:10:01;;;;;;;2.72;2.53;;;;;;;;;;4961472;28;20039;-82
2023/06/03 01:12:37;;;;;;;5.50;2.22;;;;;;;;;;4959038;28;20087;-83
2023/06/03 01:15:31;;;;;;;7.30;2.78;;;;;;;;;;4945452;29;20015;-83
2023/06/03 01:19:08;;;;;;;5.38;2.60;;;11.20;99.90;;;;;;4948999;28;20024;-81
2023/06/03 01:22:00;;;;;;;5.18;2.80;;;;;;;;;;4945385;28;20026;-82
2023/06/03 01:24:30;;;;;;;5.68;2.60;;;;;;;;;;4945192;29;20024;-83
2023/06/03 01:26:57;;;;;;;2.72;2.47;;;;;;;;;;4944329;29;20075;-82
2023/06/03 01:29:37;;;;;;;7.28;2.88;;;;;;;;;;4945780;29;20068;-83
2023/06/03 01:35:10;;;;;;;3.75;2.38;;;;;;;;;;4961419;28;20039;-83
2023/06/03 01:38:00;;;;;;;4.05;2.15;;;;;;;;;;4938719;28;20075;-82
2023/06/03 01:40:29;;;;;;;;;;;10.80;99.90;;;;;;4961153;28;20044;-83
2023/06/03 01:43:10;;;;;;;4.87;3.47;;;;;;;;;;4957253;28;19894;-83
2023/06/03 01:45:43;;;;;;;5.88;3.20;;;;;;;;;;4945137;28;20040;-81
2023/06/03 01:48:21;;;;;;;4.47;3.15;;;;;;;;;;4945000;28;20032;-84
2023/06/03 01:51:28;;;;;;;3.72;2.65;;;10.90;99.90;;;;;;4957937;28;20048;-81
2023/06/03 01:53:58;;;;;;;10.00;3.05;;;;;;;;;;4923322;29;20185;-83
2023/06/03 01:56:25;;;;;;;8.82;2.78;;;;;;;;;;4922602;29;20017;-82
2023/06/03 01:58:52;;;;;;;7.50;3.30;;;;;;;;;;4923847;29;20020;-82
2023/06/03 02:04:48;;;;;;;3.97;2.85;;;;;;;;;;4923382;29;20033;-82
2023/06/03 02:10:56;;;;;;;5.40;2.95;;;10.60;99.90;;;;;;4941623;29;20019;-82
2023/06/03 02:13:22;;;;;;;4.63;3.33;;;;;;;;;;4925395;29;20036;-83
2023/06/03 02:15:52;;;;;;;9.13;2.40;;;10.50;99.90;;;;;;4925834;29;20040;-82
2023/06/03 02:18:42;;;;;;;3.88;2.72;;;10.50;99.90;;;;;;4909696;29;20020;-82
2023/06/03 02:21:16;;;;;;;6.57;3.22;;;;;;;;;;4940849;29;20040;-83
2023/06/03 02:27:19;;;;;;;4.60;3.10;;;;;;;;;;4941082;29;20037;-82
2023/06/03 02:30:17;;;;;;;3.90;3.20;;;;;;;;;;4938669;29;20030;-82
2023/06/03 02:33:08;;;;;;;5.30;3.30;;;;;;;;;;4866520;29;20022;-82
2023/06/03 02:36:21;;;;;;;3.92;2.70;;;;;;;;;;4866309;29;20014;-81
2023/06/03 02:39:16;;;;;;;3.22;2.90;;;;;;;;;;4848072;29;20066;-82
2023/06/03 02:42:20;;;;;;;3.70;2.95;;;;;;;;;;4847252;29;20023;-81
2023/06/03 02:44:55;;;;;;;7.00;2.37;;;;;;;;;;4814508;29;20072;-82
2023/06/03 02:47:30;;;;;;;4.60;2.90;;;;;;;;;;4825707;29;20031;-82
2023/06/03 02:50:05;;;;;;;6.05;2.65;;;;;;;;;;4841834;29;20037;-82
2023/06/03 02:52:37;;;;;;;4.40;2.30;;;;;;;;;;4866503;29;20087;-82
2023/06/03 02:55:03;;;;;;;10.48;3.88;;;;;;;;;;4865935;29;20030;-82
2023/06/03 03:08:24;;;;;;;5.63;2.22;;;;;;;;;;5999266;23;20036;-81
2023/06/03 03:11:37;;;;;;;8.27;3.13;;;;;;;;;;4963709;28;20130;-82
2023/06/03 03:39:30;;;;;;;3.50;2.80;;;;;;;;;;4997962;23;20082;-82
2023/06/03 03:42:20;;;;;;;4.72;2.92;;;9.70;99.90;;;;;;4997141;28;20098;-83
2023/06/03 03:44:48;;;;;;;5.00;3.03;;;;;;;;;;5002073;28;20074;-84
2023/06/03 03:47:32;;;;;;;5.20;3.28;;;;;;;;;;5002679;28;20007;-82
2023/06/03 03:51:13;;;;;;;3.58;2.80;;;9.60;99.90;;;;;;4982565;28;20040;-81
2023/06/03 03:56:57;;;;;;;6.28;3.25;;;;;;;;;;5001810;28;20057;-84
2023/06/03 03:59:26;;;;;;;4.88;2.88;;;;;;;;;;4986097;28;20019;-83
2023/06/03 04:01:52;;;;;;;7.75;2.92;;;;;;;;;;5002179;28;20046;-82
2023/06/03 05:33:47;;;;;;;8.70;3.90;;;;;;;;;;6046172;23;20021;-82
2023/06/03 05:37:19;;;;;;;11.80;3.35;;;13.50;99.90;;;;;;4985604;28;20062;-80
2023/06/03 05:40:15;;;;;;;5.63;3.60;;;13.40;99.90;;;;;;5807684;23;20051;-79
2023/06/03 05:42:40;;;;;;;6.82;3.30;;;13.40;99.90;;;;;;4965856;28;20055;-76
2023/06/03 05:45:07;;;;;;;4.55;3.58;;;13.40;99.90;;;;;;4989160;28;20049;-75
2023/06/03 05:47:32;;;;;;;8.10;3.47;;;13.50;99.90;;;;;;4988853;28;20019;-77
2023/06/03 05:49:58;;;;;;;6.13;3.50;;;13.50;99.90;;;;;;4986105;28;20027;-76
2023/06/03 05:52:24;;;;;;;5.07;3.10;;;13.50;99.90;;;;;;4964448;28;20031;-76
2023/06/03 05:54:50;;;;;;;9.90;3.58;;;13.50;99.90;;;;;;4947852;29;20388;-80
2023/06/03 05:57:19;;;;;;;5.07;3.55;;;13.60;99.90;;;;;;4945769;29;20114;-77
2023/06/03 05:59:50;;;;;;;10.23;4.37;;;13.70;99.90;;;;;;4983740;28;20099;-78
2023/06/03 06:02:18;;;;;;;8.35;4.35;;;13.80;99.90;;;;;;4975118;28;20258;-79
2023/06/03 06:04:45;;;;;;;;;;;13.90;99.90;;;;;;4989631;28;20038;-78
2023/06/03 06:07:11;;;;;;;6.65;3.88;;;13.90;99.90;;;;;;5006877;28;19909;-78
2023/06/03 06:09:37;;;;;;;6.53;3.90;;;;;;;;;;4978765;28;20271;-80
2023/06/03 06:12:05;;;;;;;7.38;3.63;;;14.10;99.90;;;;;;4990193;28;20311;-80
2023/06/03 06:14:31;;;;;;;9.23;4.10;;;14.10;99.90;;;;;;4986812;28;20058;-80
2023/06/03 06:16:57;;;;;;;10.30;4.15;;;14.20;99.90;;;;;;4973155;28;20086;-78
2023/06/03 06:19:23;;;;;;;10.10;4.55;;;14.30;99.90;;;;;;4979467;28;20035;-81
2023/06/03 06:21:49;;;;;;;8.32;4.05;;;14.30;99.90;;;;;;4982715;28;20011;-81
2023/06/03 06:24:44;;;;;;;9.65;4.18;;;14.40;99.90;;;;;;4998803;28;20090;-81
2023/06/03 06:27:11;;;;;;;7.47;3.88;;;;;;;;;;5042581;23;20034;-81
2023/06/03 06:29:37;;;;;;;6.00;3.40;;;;;;;;;;4995303;28;20111;-82
2023/06/03 06:32:06;;;;;;;8.80;4.78;;;;;;;;;;4992874;28;20098;-83
2023/06/03 06:34:34;;;;;;;10.95;4.15;;;14.90;99.90;;;;;;4998745;28;20042;-82
2023/06/03 06:47:35;;;;;;;8.05;4.47;;;19.00;90.10;;;;;;5264238;23;20042;-83
2023/06/03 06:58:39;;;;;;;10.07;3.85;;;20.90;78.10;;;;;;5005302;23;20063;-82
2023/06/03 07:04:30;;;;;;;7.63;3.70;;;;;;;;;;5129676;23;20058;-83
2023/06/03 07:06:55;;;;;;;8.13;3.60;;;20.60;75.00;;;;;;4999285;28;20019;-82
2023/06/03 07:09:21;;;;;;;6.93;3.60;;;20.70;74.90;;;;;;4974330;28;20081;-83
2023/06/03 07:11:47;;;;;;;10.88;4.35;;;21.00;75.30;;;;;;4970023;28;20376;-83
2023/06/03 07:14:13;;;;;;;7.72;4.28;;;21.60;74.00;;;;;;4973213;28;20522;-85
2023/06/03 07:20:05;;;;;;;7.07;3.80;;;20.40;73.90;;;;;;5446584;23;20058;-83
2023/06/03 07:22:32;;;;;;;9.40;4.38;;;;;;;;;;5003167;28;20018;-82
2023/06/03 07:25:30;;;;;;;22.98;4.80;;;20.90;73.10;;;;;;4990205;28;20027;-83
2023/06/03 07:31:03;;;;;;;6.00;3.58;;;21.10;72.60;;;;;;4914742;29;20192;-87
2023/06/03 07:33:33;;;;;;;6.47;3.25;;;21.50;72.20;;;;;;4966064;28;20248;-86
2023/06/03 07:36:01;;;;;;;7.00;4.03;;;21.80;71.60;;;;;;4975666;28;20111;-84
2023/06/03 07:39:06;;;;;;;7.63;4.45;;;22.10;70.70;;;;;;4958144;28;20148;-84
2023/06/03 07:41:51;;;;;;;8.43;3.95;;;;;;;;;;4977692;28;20019;-79
2023/06/03 07:44:59;;;;;;;10.43;4.38;;;22.10;70.10;;;;;;4999476;28;20023;-82
2023/06/03 07:47:26;;;;;;;6.10;3.78;;;22.60;69.40;;;;;;4974964;28;20035;-86
2023/06/03 07:49:59;;;;;;;5.45;3.85;;;22.50;68.70;;;;;;4978895;28;20041;-83
2023/06/03 07:52:25;;;;;;;6.53;3.97;;;22.40;69.10;;;;;;4986140;28;20122;-88
2023/06/03 07:54:50;;;;;;;6.63;3.83;;;22.50;69.50;;;;;;4974636;28;20121;-86
2023/06/03 07:57:16;;;;;;;5.15;3.42;;;;;;;;;;4973965;28;20022;-84
2023/06/03 08:00:03;;;;;;;10.60;4.10;;;23.10;67.50;;;;;;4974620;28;20037;-83
2023/06/03 08:02:28;;;;;;;9.50;4.32;;;23.60;67.00;;;;;;4973588;28;20035;-84
2023/06/03 08:13:28;;;;;;;8.70;4.43;;;22.30;66.90;;;;;;5762535;23;20062;-86
2023/06/03 08:15:54;;;;;;;9.32;4.45;;;22.40;66.80;;;;;;4978142;28;20034;-84
2023/06/03 08:18:43;;;;;;;8.18;4.18;;;22.30;67.40;;;;;;4992275;28;20069;-86
2023/06/03 08:21:08;;;;;;;5.63;4.10;;;22.50;67.80;;;;;;4977155;28;20023;-85
2023/06/03 08:23:34;;;;;;;14.77;5.40;;;23.00;67.70;;;;;;4973743;28;20038;-83
2023/06/03 08:26:00;;;;;;;6.38;4.15;;;23.10;65.60;;;;;;4973091;28;20150;-84
2023/06/03 08:28:26;;;;;;;28.73;5.43;;;;;;;;;;4974502;28;20379;-86
2023/06/03 08:30:59;;;;;;;10.27;4.75;;;22.60;66.00;;;;;;4996511;28;20039;-85
2023/06/03 08:33:25;;;;;;;8.57;4.47;;;22.70;66.10;;;;;;4973733;28;20079;-85
2023/06/03 08:38:55;;;;;;;6.13;4.05;;;23.20;67.90;;;;;;4960426;28;20049;-84
2023/06/03 08:41:26;;;;;;;11.63;4.97;;;23.20;68.10;;;;;;4972738;28;20027;-85
2023/06/03 08:44:01;;;;;;;10.00;4.60;;;23.30;67.90;;;;;;4974352;28;20098;-85
2023/06/03 08:46:46;;;;;;;6.88;3.65;;;23.40;65.70;;;;;;4957430;28;20057;-84
2023/06/03 08:49:54;;;;;;;9.25;5.40;;;23.30;65.60;;;;;;4970268;28;20030;-83
2023/06/03 08:52:23;;;;;;;4.95;4.10;;;23.20;66.80;;;;;;4958244;28;20035;-84
2023/06/03 08:54:49;;;;;;;7.53;4.40;;;;;;;;;;4956586;28;20037;-83
2023/06/03 09:00:07;;;;;;;10.48;4.72;;;;;;;;;;4966434;23;20059;-85
2023/06/03 09:02:34;;;;;;;7.22;4.55;;;23.40;64.90;;;;;;4954328;29;20339;-86
2023/06/03 09:05:01;;;;;;;9.65;4.93;;;23.30;64.60;;;;;;4954026;29;20508;-85
2023/06/03 09:07:29;;;;;;;7.25;4.13;;;23.90;65.40;;;;;;4953718;29;20114;-85
2023/06/03 09:10:25;;;;;;;8.38;4.13;;;23.30;65.20;;;;;;4954330;29;20516;-84
2023/06/03 09:16:34;;;;;;;7.18;4.75;;;22.70;65.90;;;;;;4973876;28;20095;-85
2023/06/03 09:19:00;;;;;;;8.15;4.45;;;23.10;66.80;;;;;;4955034;29;20084;-84
2023/06/03 09:21:26;;;;;;;7.22;4.60;;;;;;;;;;4953925;29;20476;-86
2023/06/03 09:24:33;;;;;;;13.65;4.00;;;23.60;65.70;;;;;;4967519;28;20035;-85
2023/06/03 09:26:59;;;;;;;17.55;4.95;;;;;;;;;;4954570;28;20115;-86
2023/06/03 09:29:24;;;;;;;6.28;4.18;;;23.60;64.80;;;;;;4955944;29;20554;-84
2023/06/03 09:31:50;;;;;;;9.63;3.78;;;23.70;64.00;;;;;;4953063;29;20027;-85
2023/06/03 09:34:43;;;;;;;7.28;4.10;;;23.30;64.70;;;;;;4957493;29;20506;-83
2023/06/03 09:40:28;;;;;;;5.53;3.80;;;23.30;65.50;;;;;;4943048;29;20042;-86
2023/06/03 09:43:11;;;;;;;8.13;4.32;;;;;;;;;;4959172;28;20091;-81
2023/06/03 09:45:37;;;;;;;9.48;4.25;;;23.40;64.30;;;;;;4953856;29;20039;-84
2023/06/03 09:48:03;;;;;;;7.07;3.97;;;;;;;;;;4954609;29;20440;-85
2023/06/03 09:50:32;;;;;;;5.78;3.88;;;23.70;63.00;;;;;;4954905;29;20113;-85
2023/06/03 09:52:58;;;;;;;8.25;4.07;;;23.70;63.00;;;;;;4956323;28;20031;-85
2023/06/03 09:55:39;;;;;;;7.28;3.90;;;23.60;63.00;;;;;;4953105;29;20027;-86
2023/06/03 09:58:12;;;;;;;5.28;3.85;;;23.70;63.30;;;;;;4950466;28;20066;-83
2023/06/03 10:00:47;;;;;;;6.28;4.00;;;24.20;63.70;;;;;;4954832;29;20034;-85
2023/06/03 10:03:13;;;;;;;4.07;2.90;;;24.10;63.70;;;;;;4953089;29;20109;-86
2023/06/03 10:05:41;;;;;;;9.07;3.60;;;;;;;;;;4961364;28;20035;-82
2023/06/03 10:08:29;;;;;;;4.97;3.42;;;24.70;61.70;;;;;;4941069;29;20062;-85
2023/06/03 10:10:57;;;;;;;7.38;3.83;;;24.50;63.00;;;;;;4952728;29;20098;-85
2023/06/03 10:13:23;;;;;;;7.30;3.70;;;24.40;62.90;;;;;;4937175;29;20058;-82
2023/06/03 10:15:52;;;;;;;5.90;3.78;;;24.50;60.80;;;;;;4955509;29;20035;-86
2023/06/03 10:18:18;;;;;;;8.80;3.33;;;;;;;;;;4961646;29;20031;-85
2023/06/03 10:20:44;;;;;;;7.88;3.65;;;24.60;63.10;;;;;;4959408;29;20266;-83
2023/06/03 10:23:11;;;;;;;5.18;3.50;;;24.60;61.20;;;;;;4939594;29;20031;-85
2023/06/03 10:25:45;;;;;;;7.88;3.67;;;25.00;60.20;;;;;;4953486;29;20046;-85
2023/06/03 10:28:11;;;;;;;8.60;3.78;;;25.10;59.70;;;;;;4954203;29;20019;-86
2023/06/03 10:30:39;;;;;;;4.80;3.30;;;25.10;59.70;;;;;;4952881;29;20083;-85
2023/06/03 10:33:08;;;;;;;4.75;3.20;;;25.50;62.10;;;;;;4953758;29;20054;-86
2023/06/03 10:38:39;;;;;;;15.30;3.85;;;24.90;60.30;;;;;;4994784;23;20097;-85
2023/06/03 10:45:11;;;;;;;5.47;3.70;;;24.40;60.10;;;;;;4999969;28;20041;-82
2023/06/03 10:47:39;;;;;;;6.35;3.67;;;24.60;60.30;;;;;;4958859;28;20030;-85
2023/06/03 10:50:35;;;;;;;6.30;3.00;;;25.60;59.20;;;;;;4954614;28;20023;-84
2023/06/03 10:53:13;;;;;;;7.65;3.30;;;25.60;58.20;;;;;;4971823;28;20023;-83
2023/06/03 10:55:39;;;;;;;3.40;3.10;;;;;;;;;;4971428;28;20379;-85
2023/06/03 10:58:25;;;;;;;10.43;3.80;;;25.90;60.30;;;;;;4971121;28;20122;-83
2023/06/03 11:00:57;;;;;;;7.03;3.78;;;25.90;60.30;;;;;;4971193;28;20041;-84
2023/06/03 11:03:31;;;;;;;6.82;3.85;;;26.00;58.30;;;;;;4973070;28;20034;-85
2023/06/03 11:06:23;;;;;;;8.30;4.25;;;25.60;59.30;;;;;;4955931;28;20035;-84
2023/06/03 11:09:04;;;;;;;9.68;3.72;;;25.70;60.10;;;;;;4970693;28;20030;-82
2023/06/03 11:11:42;;;;;;;9.57;3.63;;;26.60;59.80;;;;;;4955856;28;20062;-82
2023/06/03 11:14:09;;;;;;;9.93;3.78;;;26.10;57.80;;;;;;4971141;28;20031;-85
2023/06/03 11:17:00;;;;;;;8.27;2.80;;;26.00;58.90;;;;;;4958163;28;20027;-84
2023/06/03 11:19:44;;;;;;;9.38;3.38;;;25.70;57.40;;;;;;4973631;28;20219;-84
2023/06/03 11:22:11;;;;;;;11.43;3.75;;;26.10;58.30;;;;;;4969877;28;20070;-84
2023/06/03 11:24:40;;;;;;;9.52;3.33;;;27.20;56.10;;;;;;4953838;28;20030;-83
2023/06/03 11:27:18;;;;;;;3.83;3.17;;;27.20;56.90;;;;;;4967369;28;20027;-81
2023/06/03 11:29:47;;;;;;;5.22;3.03;;;27.40;55.80;;;;;;4966917;28;20034;-82
2023/06/03 11:32:26;;;;;;;5.88;3.65;;;27.10;57.70;;;;;;4967886;28;20277;-84
2023/06/03 11:35:11;;;;;;;11.18;3.67;;;26.90;56.90;;;;;;4950249;28;20480;-84
2023/06/03 11:38:01;;;;;;;4.93;3.45;;;26.80;58.60;;;;;;4950566;28;20054;-83
2023/06/03 11:40:44;;;;;;;5.32;4.00;;;26.40;59.10;;;;;;4952789;28;20046;-83
2023/06/03 11:43:09;;;;;;;4.50;3.20;;;26.60;57.90;;;;;;4950671;28;20586;-82
2023/06/03 11:45:37;;;;;;;8.52;3.45;;;;;;;;;;4967308;28;20035;-83
2023/06/03 11:48:09;;;;;;;7.25;3.58;;;27.90;54.80;;;;;;4948166;28;20038;-82
2023/06/03 11:50:47;;;;;;;6.88;3.40;;;;;;;;;;4949867;28;20038;-83
2023/06/03 11:53:31;;;;;;;6.78;3.25;;;28.20;54.80;;;;;;4956207;28;20049;-83
2023/06/03 11:56:04;;;;;;;4.88;3.55;;;28.00;54.80;;;;;;4940543;28;20038;-84
2023/06/03 11:58:30;;;;;;;7.10;3.38;;;28.00;54.80;;;;;;4948888;28;20118;-83
2023/06/03 12:01:19;;;;;;;5.00;3.13;;;27.80;56.10;;;;;;4948890;28;20023;-83
2023/06/03 12:03:58;;;;;;;5.57;3.55;;;28.00;55.60;;;;;;4950159;28;20035;-82
2023/06/03 12:06:24;;;;;;;7.57;4.10;;;28.30;54.60;;;;;;4947579;28;20045;-82
2023/06/03 12:08:49;;;;;;;6.70;3.50;;;28.40;55.40;;;;;;4950689;28;20031;-82
2023/06/03 12:11:28;;;;;;;7.38;3.40;;;28.70;54.90;;;;;;4942436;28;20706;-83
2023/06/03 12:13:54;;;;;;;10.77;4.20;;;28.80;55.60;;;;;;4960276;28;20110;-83
2023/06/03 12:16:33;;;;;;;5.13;3.08;;;28.90;53.50;;;;;;4949459;28;20134;-83
2023/06/03 12:19:04;;;;;;;5.32;3.17;;;27.30;55.70;;;;;;4982371;28;20081;-84
2023/06/03 12:21:32;;;;;;;4.88;3.65;;;27.70;57.70;;;;;;4956087;28;20370;-78
2023/06/03 12:23:58;;;;;;;6.03;3.55;;;27.70;55.60;;;;;;4977734;28;20074;-85
2023/06/03 12:26:25;;;;;;;6.05;3.67;;;28.30;56.90;;;;;;4965189;28;20062;-84
2023/06/03 12:29:04;;;;;;;8.68;3.75;;;28.90;52.90;;;;;;4959212;28;20030;-87
2023/06/03 12:31:29;;;;;;;9.07;3.58;;;29.60;52.70;;;;;;4965968;28;20031;-84
2023/06/03 12:33:55;;;;;;;7.65;4.10;;;;;;;;;;4960503;28;20078;-86
2023/06/03 12:36:22;;;;;;;5.15;3.72;;;29.60;51.40;;;;;;4956897;28;20024;-85
2023/06/03 12:38:57;;;;;;;5.90;3.13;;;29.40;51.70;;;;;;4951079;28;20051;-87
2023/06/03 12:41:24;;;;;;;5.10;2.80;;;29.40;52.60;;;;;;4946238;28;20027;-85
2023/06/03 12:44:01;;;;;;;5.53;2.80;;;30.00;52.40;;;;;;4952670;28;20054;-86
2023/06/03 12:46:27;;;;;;;6.30;3.42;;;;;;;;;;4946256;28;20113;-82
2023/06/03 12:48:56;;;;;;;5.10;3.35;;;29.10;52.40;;;;;;4945779;28;20031;-86
2023/06/03 12:51:30;;;;;;;6.30;2.60;;;29.50;52.00;;;;;;4953017;28;20033;-87
2023/06/03 12:53:57;;;;;;;4.72;2.78;;;30.10;51.00;;;;;;4952968;28;20355;-86
2023/06/03 12:56:27;;;;;;;5.68;2.80;;;30.10;51.00;;;;;;4944493;28;20027;-85
2023/06/03 12:58:54;;;;;;;4.63;3.38;;;29.90;50.80;;;;;;4940072;28;20038;-85
2023/06/03 13:01:20;;;;;;;5.15;2.80;;;;;;;;;;4963294;28;20026;-82
2023/06/03 13:03:47;;;;;;;8.15;3.78;;;;;;;;;;4942287;28;20062;-84
2023/06/03 13:06:13;;;;;;;4.65;3.08;;;;;;;;;;4947393;28;20440;-86
2023/06/03 13:08:38;;;;;;;7.20;3.20;;;30.70;50.50;;;;;;4946842;28;20097;-88
2023/06/03 13:11:04;;;;;;;6.18;3.35;;;;;;;;;;4968715;28;20334;-87
2023/06/03 13:13:33;;;;;;;4.18;3.35;;;31.40;49.50;;;;;;4950736;28;20024;-86
2023/06/03 13:16:03;;;;;;;7.03;3.15;;;31.20;48.80;;;;;;4955066;28;21574;-85
2023/06/03 13:18:29;;;;;;;6.35;3.50;;;31.10;48.90;;;;;;4949019;28;20113;-82
2023/06/03 13:20:54;;;;;;;8.32;3.55;;;30.20;50.00;;;;;;4952719;28;20145;-84
2023/06/03 13:23:21;;;;;;;6.47;3.20;;;;;;;;;;4953467;28;20030;-87
2023/06/03 13:25:47;;;;;;;7.60;3.33;;;;;;;;;;4946601;28;20074;-87
2023/06/03 13:28:13;;;;;;;4.53;3.60;;;30.10;50.70;;;;;;4946153;28;20023;-82
2023/06/03 13:30:39;;;;;;;11.50;3.63;;;29.70;51.20;;;;;;4943892;28;20039;-82
2023/06/03 13:33:05;;;;;;;3.97;3.15;;;30.00;51.80;;;;;;4956474;28;20023;-83
2023/06/03 13:35:31;;;;;;;6.32;3.38;;;29.60;50.00;;;;;;4939270;28;20097;-82
2023/06/03 13:37:57;;;;;;;10.18;3.28;;;;;;;;;;4954305;28;20055;-80
2023/06/03 13:40:22;;;;;;;5.10;3.53;;;31.00;50.00;;;;;;4954315;28;20038;-83
2023/06/03 13:42:48;;;;;;;5.50;2.88;;;31.60;50.10;;;;;;4954037;28;20344;-78
2023/06/03 13:45:14;;;;;;;5.85;3.10;;;32.80;48.00;;;;;;4970522;28;20035;-78
2023/06/03 13:47:40;;;;;;;10.05;3.03;;;32.90;47.20;;;;;;4948418;28;20023;-82
2023/06/03 13:50:08;;;;;;;3.72;2.40;;;33.50;45.60;;;;;;4950044;28;20086;-83
2023/06/03 13:52:34;;;;;;;;;;;33.20;47.00;;;;;;4953232;28;20026;-78
2023/06/03 13:55:00;;;;;;;9.95;2.85;;;33.80;46.30;;;;;;4968959;28;20689;-78
2023/06/03 13:57:26;;;;;;;5.45;2.88;;;;;;;;;;4952507;28;20223;-83
2023/06/03 13:59:52;;;;;;;6.38;3.38;;;33.60;46.30;;;;;;4939798;29;20023;-84
2023/06/03 14:02:18;;;;;;;5.53;3.60;;;;;;;;;;4952137;28;20030;-88
2023/06/03 14:04:44;;;;;;;4.22;2.95;;;;;;;;;;4933846;28;20039;-89
2023/06/03 14:07:10;;;;;;;7.68;3.40;;;;;;;;;;4935047;28;20122;-87
2023/06/03 14:09:36;;;;;;;3.88;3.22;;;30.20;50.10;;;;;;4935872;28;20484;-87
2023/06/03 14:12:02;;;;;;;5.97;3.05;;;30.40;51.40;;;;;;4952677;28;20041;-86
2023/06/03 14:14:28;;;;;;;4.00;2.90;;;30.90;50.20;;;;;;4945839;28;20033;-84
2023/06/03 14:16:54;;;;;;;7.88;3.38;;;30.70;49.40;;;;;;4945088;28;20035;-87
2023/06/03 14:19:20;;;;;;;4.53;3.05;;;;;;;;;;4938704;28;20043;-81
2023/06/03 14:21:45;;;;;;;4.65;3.38;;;30.30;49.20;;;;;;4941663;28;20031;-82
2023/06/03 14:24:11;;;;;;;8.18;3.03;;;29.90;50.60;;;;;;4949009;28;20066;-86
2023/06/03 14:26:37;;;;;;;8.30;3.55;;;30.90;50.50;;;;;;4951533;28;20027;-85
2023/06/03 14:29:04;;;;;;;6.82;3.28;;;30.30;49.10;;;;;;4937630;28;20481;-84
2023/06/03 14:31:31;;;;;;;10.02;4.20;;;;;;;;;;4954612;28;20023;-85
2023/06/03 14:33:56;;;;;;;7.88;3.50;;;29.40;50.50;;;;;;4959968;28;20337;-84
2023/06/03 14:36:22;;;;;;;6.30;3.35;;;29.90;50.60;;;;;;4958973;28;20023;-80
2023/06/03 14:38:48;;;;;;;6.45;3.65;;;30.10;46.80;;;;;;4950998;28;20512;-83
2023/06/03 14:41:15;;;;;;;9.20;3.60;;;;;;;;;;4954413;28;20026;-81
2023/06/03 14:43:40;;;;;;;6.85;3.22;;;30.40;49.00;;;;;;4954065;28;20026;-81
2023/06/03 14:46:06;;;;;;;5.05;3.30;;;30.70;49.90;;;;;;4953049;28;20698;-87
2023/06/03 14:48:32;;;;;;;7.15;3.72;;;30.50;50.50;;;;;;4956000;28;20031;-81
2023/06/03 14:50:58;;;;;;;8.88;3.38;;;29.90;51.50;;;;;;4958292;28;20080;-89
2023/06/03 14:53:23;;;;;;;7.28;3.78;;;32.20;52.90;;;;;;4952034;28;20023;-88
2023/06/03 14:55:49;;;;;;;5.63;3.13;;;29.80;51.20;;;;;;4948116;28;20035;-88
2023/06/03 14:58:16;;;;;;;6.78;3.50;;;;;;;;;;4945465;29;20027;-82
2023/06/03 15:00:42;;;;;;;6.85;3.40;;;;;;;;;;4946782;28;20031;-81
2023/06/03 15:03:08;;;;;;;5.80;3.42;;;;;;;;;;4948322;28;20118;-83
2023/06/03 15:05:34;;;;;;;9.25;3.25;;;;;;;;;;4942164;29;20043;-87
2023/06/03 15:07:59;;;;;;;5.68;3.25;;;30.50;49.80;;;;;;4948646;29;20100;-89
2023/06/03 15:10:26;;;;;;;6.20;3.45;;;;;;;;;;4950896;28;20554;-84
2023/06/03 15:12:52;;;;;;;6.72;3.00;;;;;;;;;;4949887;28;20019;-89
2023/06/03 15:15:17;;;;;;;4.40;3.55;;;29.70;50.20;;;;;;4939740;29;20035;-89
2023/06/03 15:17:43;;;;;;;9.02;4.03;;;30.10;51.00;;;;;;4958253;28;20026;-87
2023/06/03 15:20:09;;;;;;;6.63;3.45;;;30.50;50.30;;;;;;4972093;28;20043;-81
2023/06/03 15:22:35;;;;;;;7.10;3.08;;;30.60;50.50;;;;;;4958586;28;20115;-81
2023/06/03 15:25:00;;;;;;;4.43;3.03;;;31.10;48.60;;;;;;4961501;28;20479;-80
2023/06/03 15:27:26;;;;;;;3.58;2.88;;;31.10;49.30;;;;;;4976535;28;20018;-85
2023/06/03 15:29:52;;;;;;;7.03;3.67;;;31.10;48.70;;;;;;4971084;28;20031;-88
2023/06/03 15:32:17;;;;;;;8.32;3.40;;;30.20;49.30;;;;;;4958567;28;20030;-80
2023/06/03 15:34:43;;;;;;;7.75;3.08;;;30.60;47.00;;;;;;4968646;28;20039;-82
2023/06/03 15:37:09;;;;;;;4.25;3.17;;;30.70;47.40;;;;;;4955737;28;20045;-80
2023/06/03 15:39:34;;;;;;;6.75;3.47;;;30.40;50.10;;;;;;4971486;28;20046;-82
2023/06/03 15:42:00;;;;;;;4.45;3.42;;;29.80;51.40;;;;;;4982090;28;20045;-83
2023/06/03 15:44:26;;;;;;;4.65;3.00;;;29.80;51.80;;;;;;4984260;28;20222;-80
2023/06/03 15:46:51;;;;;;;5.00;3.10;;;29.50;52.30;;;;;;4983286;28;20097;-82
2023/06/03 15:49:17;;;;;;;4.55;3.00;;;29.90;51.90;;;;;;4966019;28;20019;-81
2023/06/03 15:51:44;;;;;;;6.80;3.47;;;30.10;50.60;;;;;;4982424;28;20097;-81
2023/06/03 15:54:10;;;;;;;3.95;3.55;;;30.60;51.00;;;;;;4967111;28;20077;-86
2023/06/03 15:56:36;;;;;;;6.20;2.97;;;30.00;51.60;;;;;;4959474;28;20022;-80
2023/06/03 15:59:01;;;;;;;8.48;3.80;;;29.80;49.60;;;;;;4960638;28;20026;-85
2023/06/03 16:01:27;;;;;;;9.65;3.30;;;29.60;50.00;;;;;;4977190;28;20349;-88
2023/06/03 16:03:53;;;;;;;5.70;3.15;;;29.70;50.30;;;;;;4974190;28;20031;-86
2023/06/03 16:06:19;;;;;;;8.68;2.97;;;;;;;;;;4974470;28;20174;-84
2023/06/03 16:08:44;;;;;;;10.63;3.50;;;29.70;50.80;;;;;;4980183;28;20069;-80
2023/06/03 16:11:10;;;;;;;5.82;3.75;;;29.60;52.90;;;;;;4979051;28;20026;-79
2023/06/03 16:13:36;;;;;;;8.77;3.65;;;29.40;52.30;;;;;;4973652;28;20080;-85
2023/06/03 16:16:01;;;;;;;4.82;2.80;;;29.50;52.50;;;;;;4975775;28;20105;-80
2023/06/03 16:18:27;;;;;;;6.72;3.30;;;29.00;52.10;;;;;;4960572;28;20027;-88
2023/06/03 16:20:54;;;;;;;3.90;2.92;;;28.50;53.50;;;;;;4979954;28;20065;-82
2023/06/03 16:23:20;;;;;;;5.63;3.75;;;28.30;53.60;;;;;;4961000;28;20038;-86
2023/06/03 16:25:45;;;;;;;9.73;3.60;;;28.50;53.50;;;;;;4961940;28;20045;-82
2023/06/03 16:28:12;;;;;;;4.10;3.28;;;28.60;54.30;;;;;;4979468;28;20022;-83
2023/06/03 16:30:38;;;;;;;10.43;3.63;;;28.30;54.50;;;;;;4978541;28;20054;-83
2023/06/03 16:33:03;;;;;;;7.95;4.00;;;28.20;53.90;;;;;;4964908;28;20019;-80
2023/06/03 16:35:29;;;;;;;8.82;3.67;;;27.70;54.30;;;;;;4962435;28;20033;-80
2023/06/03 16:37:55;;;;;;;8.73;4.20;;;27.90;53.90;;;;;;4981951;28;20504;-87
2023/06/03 16:40:20;;;;;;;6.38;3.38;;;27.90;53.80;;;;;;4961900;28;20022;-81
2023/06/03 16:42:46;;;;;;;8.60;3.92;;;27.80;55.20;;;;;;4962876;28;20307;-81
2023/06/03 16:45:12;;;;;;;6.63;3.50;;;27.30;55.80;;;;;;4986815;28;20228;-82
2023/06/03 16:47:38;;;;;;;8.50;3.38;;;;;;;;;;4970101;28;20014;-87
2023/06/03 16:50:04;;;;;;;6.95;3.42;;;27.10;55.90;;;;;;4986220;28;20098;-89
2023/06/03 16:52:29;;;;;;;8.00;3.65;;;27.20;57.30;;;;;;4981173;28;20019;-90
2023/06/03 16:54:55;;;;;;;9.27;4.18;;;;;;;;;;4969579;28;20038;-85
2023/06/03 16:57:21;;;;;;;6.30;3.70;;;27.30;55.30;;;;;;4988246;28;20023;-84
2023/06/03 16:59:47;;;;;;;7.00;4.22;;;27.10;56.00;;;;;;4982199;28;20037;-84
2023/06/03 17:02:12;;;;;;;6.15;2.83;;;27.10;57.00;;;;;;4963797;28;20350;-80
2023/06/03 17:04:39;;;;;;;9.68;5.47;;;27.30;56.90;;;;;;4969395;28;20271;-79
2023/06/03 17:07:05;;;;;;;9.55;3.90;;;27.20;56.70;;;;;;4952403;28;20451;-79
2023/06/03 17:09:31;;;;;;;4.97;3.72;;;27.40;56.60;;;;;;4971484;28;20526;-79
2023/06/03 17:11:56;;;;;;;8.30;4.30;;;27.20;55.80;;;;;;4955726;28;20031;-80
2023/06/03 17:14:22;;;;;;;10.23;4.25;;;27.30;56.30;;;;;;4971536;28;20050;-78
2023/06/03 17:16:48;;;;;;;10.95;3.70;;;27.40;56.40;;;;;;4973078;28;20085;-79
2023/06/03 17:19:14;;;;;;;7.65;4.43;;;27.30;57.00;;;;;;4973049;28;20023;-78